createdAt,value
2022-12-28T00:01:21.740Z,100.00
2022-12-28T00:03:49.771Z,100.00
2022-12-28T00:06:17.996Z,100.00
2022-12-28T00:08:45.297Z,100.00
2022-12-28T00:11:26.428Z,100.00
2022-12-28T00:14:02.399Z,100.00
2022-12-28T00:16:35.185Z,100.00
2022-12-28T00:19:06.040Z,100.00
2022-12-28T00:21:34.646Z,100.00
2022-12-28T00:24:02.417Z,100.00
2022-12-28T00:26:32.308Z,100.00
2022-12-28T00:29:04.789Z,100.00
2022-12-28T00:31:34.431Z,100.00
2022-12-28T00:34:02.610Z,99.74
2022-12-28T00:37:09.377Z,97.66
2022-12-28T00:39:17.612Z,98.63
2022-12-28T00:41:44.844Z,97.44
2022-12-28T00:44:11.965Z,98.03
2022-12-28T00:46:39.195Z,96.82
2022-12-28T00:49:06.306Z,95.95
2022-12-28T00:51:36.041Z,97.97
2022-12-28T00:54:03.232Z,99.42
2022-12-28T00:56:30.408Z,100.00
2022-12-28T00:58:59.410Z,100.00
2022-12-28T01:01:28.105Z,100.00
2022-12-28T01:03:57.157Z,100.00
2022-12-28T01:06:26.978Z,100.00
2022-12-28T01:08:54.306Z,100.00
2022-12-28T01:11:27.030Z,100.00
2022-12-28T01:13:56.405Z,100.00
2022-12-28T01:16:26.440Z,100.00
2022-12-28T01:18:57.902Z,100.00
2022-12-28T01:21:28.036Z,100.00
2022-12-28T01:23:57.958Z,100.00
2022-12-28T01:26:26.541Z,100.00
2022-12-28T01:28:54.229Z,100.00
2022-12-28T01:31:22.441Z,100.00
2022-12-28T01:34:09.537Z,100.00
2022-12-28T01:36:36.679Z,100.00
2022-12-28T01:39:06.883Z,98.53
2022-12-28T01:41:38.633Z,97.31
2022-12-28T01:44:07.210Z,96.52
2022-12-28T01:46:50.182Z,95.98
2022-12-28T01:49:23.186Z,98.31
2022-12-28T01:52:06.234Z,99.32
2022-12-28T01:54:40.729Z,99.76
2022-12-28T01:57:08.766Z,100.00
2022-12-28T01:59:41.676Z,99.84
2022-12-28T02:02:12.923Z,97.88
2022-12-28T02:04:40.100Z,99.97
2022-12-28T02:07:07.257Z,100.00
2022-12-28T02:09:39.865Z,100.00
2022-12-28T02:12:15.318Z,100.00
2022-12-28T02:14:44.512Z,98.24
2022-12-28T02:17:13.869Z,97.45
2022-12-28T02:19:46.947Z,96.76
2022-12-28T02:22:36.697Z,97.89
2022-12-28T02:25:52.313Z,100.00
2022-12-28T02:28:38.307Z,99.05
2022-12-28T02:31:21.185Z,98.13
2022-12-28T02:34:03.471Z,96.23
2022-12-28T02:36:39.458Z,95.57
2022-12-28T02:39:16.573Z,92.86
2022-12-28T02:41:45.599Z,93.19
2022-12-28T02:44:33.500Z,94.36
2022-12-28T02:47:19.419Z,96.31
2022-12-28T02:50:04.937Z,94.08
2022-12-28T02:53:26.024Z,92.66
2022-12-28T02:56:08.294Z,93.06
2022-12-28T02:58:58.668Z,92.28
2022-12-28T03:01:44.434Z,91.23
2022-12-28T03:04:17.088Z,91.09
2022-12-28T03:07:17.159Z,89.53
2022-12-28T03:10:01.287Z,88.84
2022-12-28T03:12:36.646Z,90.11
2022-12-28T03:15:29.782Z,90.23
2022-12-28T03:18:33.026Z,88.93
2022-12-28T03:21:23.698Z,91.02
2022-12-28T03:24:12.088Z,93.72
2022-12-28T03:27:10.447Z,91.82
2022-12-28T03:30:12.945Z,90.54
2022-12-28T03:32:40.666Z,89.48
2022-12-28T03:35:08.659Z,89.31
2022-12-28T03:37:50.363Z,88.72
2022-12-28T03:40:23.952Z,90.70
2022-12-28T03:43:14.084Z,90.25
2022-12-28T03:46:02.555Z,91.18
2022-12-28T03:48:32.975Z,93.14
2022-12-28T03:51:01.010Z,91.09
2022-12-28T03:53:36.766Z,91.53
2022-12-28T03:56:11.810Z,91.24
2022-12-28T03:58:39.993Z,91.12
2022-12-28T04:01:08.956Z,90.12
2022-12-28T04:03:39.745Z,88.16
2022-12-28T04:06:07.779Z,89.18
2022-12-28T04:08:35.392Z,89.47
2022-12-28T04:11:05.072Z,90.97
2022-12-28T04:13:33.479Z,91.71
2022-12-28T04:16:09.765Z,91.03
2022-12-28T04:18:38.486Z,90.11
2022-12-28T04:21:06.117Z,88.86
2022-12-28T04:23:34.098Z,89.84
2022-12-28T04:26:30.254Z,90.73
2022-12-28T04:29:02.290Z,91.14
2022-12-28T04:31:47.928Z,89.11
2022-12-28T04:34:19.252Z,92.08
2022-12-28T04:36:54.257Z,93.46
2022-12-28T04:39:22.783Z,93.04
2022-12-28T04:41:50.080Z,94.80
2022-12-28T04:44:17.208Z,96.73
2022-12-28T04:46:44.438Z,96.41
2022-12-28T04:49:11.665Z,94.33
2022-12-28T04:51:38.773Z,94.38
2022-12-28T04:54:05.958Z,92.20
2022-12-28T04:56:33.201Z,90.98
2022-12-28T04:59:01.235Z,91.42
2022-12-28T05:01:28.986Z,91.45
2022-12-28T05:03:59.903Z,91.73
2022-12-28T05:06:28.188Z,90.95
2022-12-28T05:08:57.321Z,88.61
2022-12-28T05:11:27.913Z,89.70
2022-12-28T05:13:55.875Z,91.36
2022-12-28T05:16:25.620Z,91.83
2022-12-28T05:18:52.902Z,91.88
2022-12-28T05:21:22.868Z,94.07
2022-12-28T05:23:50.591Z,96.08
2022-12-28T05:26:20.887Z,93.19
2022-12-28T05:28:48.431Z,96.06
2022-12-28T05:31:18.220Z,96.40
2022-12-28T05:33:45.505Z,92.45
2022-12-28T05:36:18.346Z,90.97
2022-12-28T05:38:46.465Z,90.98
2022-12-28T05:41:16.114Z,91.47
2022-12-28T05:43:43.822Z,91.44
2022-12-28T05:46:16.655Z,89.98
2022-12-28T05:48:44.210Z,91.04
2022-12-28T05:51:13.923Z,89.81
2022-12-28T05:53:42.160Z,92.91
2022-12-28T05:56:14.624Z,92.00
2022-12-28T05:58:43.757Z,91.52
2022-12-28T06:01:19.452Z,89.94
2022-12-28T06:03:48.063Z,88.52
2022-12-28T06:06:18.159Z,87.18
2022-12-28T06:08:47.149Z,86.33
2022-12-28T06:11:25.873Z,85.68
2022-12-28T06:13:53.323Z,83.36
2022-12-28T06:16:26.583Z,85.58
2022-12-28T06:18:54.083Z,85.91
2022-12-28T06:21:31.850Z,84.98
2022-12-28T06:24:00.495Z,84.94
2022-12-28T06:26:30.665Z,86.23
2022-12-28T06:28:58.103Z,84.70
2022-12-28T06:31:33.150Z,84.13
2022-12-28T06:34:01.904Z,83.68
2022-12-28T06:36:34.526Z,81.25
2022-12-28T06:39:03.589Z,83.59
2022-12-28T06:41:30.839Z,85.19
2022-12-28T06:43:58.570Z,84.26
2022-12-28T06:46:29.023Z,83.11
2022-12-28T06:48:57.287Z,84.44
2022-12-28T06:51:32.131Z,83.98
2022-12-28T06:53:59.265Z,82.97
2022-12-28T06:56:31.408Z,82.63
2022-12-28T06:59:03.388Z,81.78
2022-12-28T07:01:35.324Z,81.32
2022-12-28T07:04:04.447Z,81.32
2022-12-28T07:06:35.843Z,81.87
2022-12-28T07:09:06.874Z,84.28
2022-12-28T07:11:34.570Z,85.05
2022-12-28T07:14:02.496Z,84.68
2022-12-28T07:18:58.052Z,82.29
2022-12-28T07:21:28.161Z,81.74
2022-12-28T07:23:55.981Z,81.53
2022-12-28T07:26:25.671Z,80.98
2022-12-28T07:28:54.529Z,81.34
2022-12-28T07:31:27.811Z,81.21
2022-12-28T07:33:56.320Z,81.22
2022-12-28T07:36:24.872Z,81.32
2022-12-28T07:38:52.669Z,81.49
2022-12-28T07:41:22.508Z,81.55
2022-12-28T07:43:50.061Z,81.10
2022-12-28T07:46:19.860Z,80.83
2022-12-28T07:48:47.376Z,83.19
2022-12-28T07:51:18.988Z,83.26
2022-12-28T07:53:48.352Z,82.89
2022-12-28T07:56:16.277Z,82.94
2022-12-28T08:01:14.398Z,82.10
2022-12-28T08:03:42.495Z,80.93
2022-12-28T08:06:15.769Z,80.70
2022-12-28T08:08:45.344Z,81.19
2022-12-28T08:11:24.280Z,79.47
2022-12-28T08:13:53.710Z,80.74
2022-12-28T08:16:22.751Z,83.26
2022-12-28T08:18:50.280Z,85.48
2022-12-28T08:21:18.487Z,88.19
2022-12-28T08:23:47.012Z,88.07
2022-12-28T08:26:17.690Z,86.52
2022-12-28T08:28:46.539Z,85.96
2022-12-28T08:31:17.090Z,86.87
2022-12-28T08:33:44.803Z,85.99
2022-12-28T08:36:11.880Z,87.00
2022-12-28T08:38:40.497Z,87.33
2022-12-28T08:41:11.339Z,86.76
2022-12-28T08:43:38.436Z,84.62
2022-12-28T08:46:10.612Z,84.07
2022-12-28T08:48:37.806Z,83.66
2022-12-28T08:51:08.212Z,82.62
2022-12-28T08:53:36.495Z,81.47
2022-12-28T08:56:12.545Z,80.60
2022-12-28T08:58:41.134Z,81.35
2022-12-28T09:01:14.170Z,83.40
2022-12-28T09:03:44.028Z,81.88
2022-12-28T09:06:15.110Z,82.81
2022-12-28T09:08:42.793Z,81.39
2022-12-28T09:11:19.462Z,81.88
2022-12-28T09:13:46.711Z,81.35
2022-12-28T09:16:17.263Z,82.28
2022-12-28T09:18:46.264Z,85.07
2022-12-28T09:21:18.427Z,85.00
2022-12-28T09:23:46.877Z,86.91
2022-12-28T09:26:16.915Z,85.82
2022-12-28T09:28:52.822Z,85.33
2022-12-28T09:31:21.896Z,86.43
2022-12-28T09:36:51.501Z,83.96
2022-12-28T09:39:22.850Z,82.12
2022-12-28T09:41:58.329Z,80.78
2022-12-28T09:44:34.531Z,82.35
2022-12-28T09:47:26.053Z,81.40
2022-12-28T09:50:14.066Z,81.49
2022-12-28T09:52:59.878Z,82.34
2022-12-28T09:55:28.359Z,83.19
2022-12-28T09:57:59.231Z,82.77
2022-12-28T10:00:46.218Z,82.31
2022-12-28T10:03:19.110Z,81.55
2022-12-28T10:05:47.157Z,81.08
2022-12-28T10:08:17.415Z,80.43
2022-12-28T10:10:48.578Z,79.89
2022-12-28T10:16:20.591Z,79.93
2022-12-28T10:18:49.016Z,80.40
2022-12-28T10:21:20.024Z,79.97
2022-12-28T10:24:21.232Z,80.69
2022-12-28T10:26:39.355Z,82.62
2022-12-28T10:29:15.231Z,82.47
2022-12-28T10:31:43.541Z,81.43
2022-12-28T10:34:21.233Z,81.81
2022-12-28T10:36:50.054Z,81.55
2022-12-28T10:39:27.292Z,81.92
2022-12-28T10:41:56.364Z,80.31
2022-12-28T10:44:40.032Z,81.83
2022-12-28T10:47:28.208Z,80.86
2022-12-28T10:50:26.902Z,80.94
2022-12-28T10:52:42.356Z,79.33
2022-12-28T10:55:41.779Z,81.15
2022-12-28T10:58:32.845Z,81.80
2022-12-28T11:01:16.035Z,80.95
2022-12-28T11:03:59.428Z,82.65
2022-12-28T11:06:34.819Z,85.37
2022-12-28T11:09:22.160Z,88.10
2022-12-28T11:11:51.174Z,88.88
2022-12-28T11:14:25.076Z,87.92
2022-12-28T11:16:53.414Z,87.09
2022-12-28T11:19:22.498Z,85.10
2022-12-28T11:21:49.682Z,83.39
2022-12-28T11:24:18.295Z,84.42
2022-12-28T11:26:49.354Z,86.03
2022-12-28T11:29:19.140Z,88.35
2022-12-28T11:31:53.967Z,87.28
2022-12-28T11:34:26.378Z,86.38
2022-12-28T11:36:53.805Z,84.36
2022-12-28T11:39:26.935Z,84.55
2022-12-28T11:42:28.158Z,84.16
2022-12-28T11:44:42.982Z,84.67
2022-12-28T11:47:16.306Z,85.59
2022-12-28T11:49:45.451Z,86.20
2022-12-28T11:52:20.767Z,85.86
2022-12-28T11:55:21.869Z,84.59
2022-12-28T11:57:49.886Z,85.53
2022-12-28T12:00:21.915Z,86.48
2022-12-28T12:02:56.645Z,86.70
2022-12-28T12:05:36.677Z,87.00
2022-12-28T12:08:14.253Z,86.92
2022-12-28T12:10:45.452Z,86.09
2022-12-28T12:13:47.982Z,85.20
2022-12-28T12:16:33.256Z,86.05
2022-12-28T12:19:02.467Z,85.92
2022-12-28T12:21:32.160Z,85.55
2022-12-28T12:24:10.610Z,85.46
2022-12-28T12:26:45.775Z,85.07
2022-12-28T12:29:16.103Z,86.19
2022-12-28T12:31:48.001Z,85.85
2022-12-28T12:34:23.682Z,86.50
2022-12-28T12:37:18.259Z,85.95
2022-12-28T12:40:12.340Z,87.13
2022-12-28T12:43:18.148Z,88.62
2022-12-28T12:46:36.307Z,89.77
2022-12-28T12:49:33.259Z,92.78
2022-12-28T12:52:22.348Z,92.73
2022-12-28T12:55:10.650Z,93.67
2022-12-28T12:57:53.641Z,94.28
2022-12-28T13:00:22.743Z,91.40
2022-12-28T13:02:55.892Z,91.83
2022-12-28T13:05:27.437Z,92.78
2022-12-28T13:07:56.710Z,92.06
2022-12-28T13:10:36.513Z,91.40
2022-12-28T13:13:05.764Z,92.18
2022-12-28T13:15:33.218Z,92.33
2022-12-28T13:21:00.880Z,91.03
2022-12-28T13:23:30.784Z,91.29
2022-12-28T13:26:02.621Z,89.61
2022-12-28T13:28:34.910Z,89.71
2022-12-28T13:31:08.146Z,90.20
2022-12-28T13:33:35.324Z,88.61
2022-12-28T13:36:14.280Z,88.72
2022-12-28T13:38:41.590Z,89.25
2022-12-28T13:41:21.364Z,90.73
2022-12-28T13:44:16.487Z,90.09
2022-12-28T13:46:48.119Z,90.03
2022-12-28T13:49:15.366Z,89.43
2022-12-28T13:51:46.073Z,90.12
2022-12-28T13:54:17.666Z,91.73
2022-12-28T13:56:45.676Z,91.37
2022-12-28T13:59:17.505Z,90.90
2022-12-28T14:01:49.927Z,90.79
2022-12-28T14:04:51.720Z,91.41
2022-12-28T14:07:16.172Z,91.98
2022-12-28T14:09:44.257Z,92.25
2022-12-28T14:12:13.582Z,91.40
2022-12-28T14:14:42.269Z,92.11
2022-12-28T14:17:10.065Z,92.94
2022-12-28T14:19:37.647Z,91.72
2022-12-28T14:22:29.356Z,91.07
2022-12-28T14:25:09.277Z,89.82
2022-12-28T14:27:40.635Z,89.92
2022-12-28T14:30:21.925Z,90.75
2022-12-28T14:32:49.168Z,90.53
2022-12-28T14:35:20.489Z,89.97
2022-12-28T14:37:53.955Z,89.83
2022-12-28T14:40:31.214Z,91.37
2022-12-28T14:43:04.051Z,90.95
2022-12-28T14:45:34.286Z,91.72
2022-12-28T14:48:30.485Z,91.33
2022-12-28T14:51:17.622Z,90.94
2022-12-28T14:53:45.525Z,92.83
2022-12-28T14:56:17.780Z,93.15
2022-12-28T14:58:55.174Z,95.17
2022-12-28T15:01:23.312Z,95.05
2022-12-28T15:03:55.228Z,95.66
2022-12-28T15:06:26.950Z,94.40
2022-12-28T15:08:55.330Z,92.11
2022-12-28T15:11:24.017Z,92.53
2022-12-28T15:13:51.364Z,91.87
2022-12-28T15:16:20.381Z,92.69
2022-12-28T15:18:47.601Z,92.72
2022-12-28T15:21:20.133Z,94.15
2022-12-28T15:23:51.695Z,94.09
2022-12-28T15:26:19.562Z,93.45
2022-12-28T15:28:46.936Z,93.54
2022-12-28T15:31:17.885Z,92.53
2022-12-28T15:33:45.479Z,91.83
2022-12-28T15:36:20.969Z,90.66
2022-12-28T15:38:49.464Z,90.31
2022-12-28T15:41:36.535Z,88.35
2022-12-28T15:44:04.549Z,88.19
2022-12-28T15:46:32.260Z,88.28
2022-12-28T15:49:02.403Z,88.49
2022-12-28T15:51:29.551Z,88.78
2022-12-28T15:53:56.644Z,88.20
2022-12-28T15:56:27.128Z,87.45
2022-12-28T15:58:56.330Z,86.67
2022-12-28T16:01:25.395Z,86.21
2022-12-28T16:03:54.066Z,86.65
2022-12-28T16:06:22.844Z,85.75
2022-12-28T16:08:53.551Z,85.57
2022-12-28T16:11:22.285Z,85.72
2022-12-28T16:13:58.059Z,86.46
2022-12-28T16:16:27.606Z,86.17
2022-12-28T16:18:58.675Z,87.38
2022-12-28T16:21:26.784Z,87.23
2022-12-28T16:23:54.237Z,86.43
2022-12-28T16:26:22.494Z,87.33
2022-12-28T16:28:49.919Z,87.39
2022-12-28T16:31:37.161Z,87.73
2022-12-28T16:34:07.702Z,87.87
2022-12-28T16:36:35.349Z,88.43
2022-12-28T16:39:05.569Z,86.72
2022-12-28T16:41:36.831Z,86.78
2022-12-28T16:44:16.857Z,86.66
2022-12-28T16:46:44.052Z,86.73
2022-12-28T16:49:11.930Z,87.88
2022-12-28T16:51:44.814Z,88.28
2022-12-28T16:54:15.925Z,87.40
2022-12-28T16:56:44.166Z,87.13
2022-12-28T16:59:16.557Z,87.85
2022-12-28T17:01:44.331Z,88.24
2022-12-28T17:04:12.721Z,89.90
2022-12-28T17:06:42.064Z,91.07
2022-12-28T17:09:09.657Z,89.56
2022-12-28T17:11:36.815Z,89.14
2022-12-28T17:14:07.330Z,89.00
2022-12-28T17:16:34.834Z,88.54
2022-12-28T17:19:02.394Z,90.29
2022-12-28T17:21:31.165Z,89.74
2022-12-28T17:23:59.137Z,89.14
2022-12-28T17:26:26.780Z,88.91
2022-12-28T17:28:53.992Z,87.86
2022-12-28T17:31:23.212Z,89.01
2022-12-28T17:33:55.765Z,90.16
2022-12-28T17:36:23.737Z,90.17
2022-12-28T17:38:51.086Z,89.44
2022-12-28T17:41:21.163Z,88.24
2022-12-28T17:43:53.094Z,88.47
2022-12-28T17:46:21.332Z,88.25
2022-12-28T17:48:49.246Z,87.60
2022-12-28T17:51:16.418Z,88.81
2022-12-28T17:53:43.662Z,88.54
2022-12-28T17:56:13.354Z,87.59
2022-12-28T17:58:42.282Z,86.95
2022-12-28T18:01:12.241Z,88.31
2022-12-28T18:03:39.656Z,88.50
2022-12-28T18:06:07.085Z,87.18
2022-12-28T18:08:34.220Z,86.97
2022-12-28T18:11:01.789Z,86.58
2022-12-28T18:13:28.948Z,86.58
2022-12-28T18:15:56.626Z,87.12
2022-12-28T18:18:23.772Z,87.20
2022-12-28T18:21:05.981Z,86.48
2022-12-28T18:23:34.459Z,87.71
2022-12-28T18:26:10.827Z,88.11
2022-12-28T18:28:38.056Z,88.12
2022-12-28T18:31:05.807Z,88.84
2022-12-28T18:33:34.350Z,88.80
2022-12-28T18:36:03.342Z,88.69
2022-12-28T18:38:30.933Z,88.80
2022-12-28T18:40:58.988Z,88.45
2022-12-28T18:43:26.316Z,88.49
2022-12-28T18:46:01.438Z,89.25
2022-12-28T18:48:30.360Z,90.44
2022-12-28T18:51:03.767Z,90.16
2022-12-28T18:53:31.179Z,90.02
2022-12-28T18:56:13.437Z,89.69
2022-12-28T18:58:42.048Z,89.12
2022-12-28T19:04:10.463Z,89.26
2022-12-28T19:06:38.475Z,88.97
2022-12-28T19:09:07.059Z,89.57
2022-12-28T19:11:35.644Z,90.14
2022-12-28T19:14:04.598Z,90.23
2022-12-28T19:16:32.640Z,90.27
2022-12-28T19:19:00.217Z,90.21
2022-12-28T19:21:38.475Z,89.48
2022-12-28T19:24:10.113Z,90.83
2022-12-28T19:26:37.369Z,92.00
2022-12-28T19:29:05.004Z,93.34
2022-12-28T19:31:32.827Z,92.53
2022-12-28T19:34:00.226Z,92.44
2022-12-28T19:36:27.473Z,92.46
2022-12-28T19:38:55.934Z,91.55
2022-12-28T19:41:23.944Z,91.59
2022-12-28T19:43:51.608Z,90.91
2022-12-28T19:46:21.883Z,91.12
2022-12-28T19:48:52.897Z,91.77
2022-12-28T19:51:20.017Z,91.99
2022-12-28T19:53:47.129Z,91.98
2022-12-28T19:56:17.087Z,92.25
2022-12-28T19:58:46.085Z,92.83
2022-12-28T20:01:15.288Z,93.50
2022-12-28T20:03:43.067Z,94.02
2022-12-28T20:06:13.208Z,94.34
2022-12-28T20:08:44.738Z,94.62
2022-12-28T20:11:11.816Z,94.08
2022-12-28T20:13:38.941Z,93.86
2022-12-28T20:16:06.542Z,93.55
2022-12-28T20:18:33.671Z,93.38
2022-12-28T20:21:20.524Z,93.33
2022-12-28T20:23:49.947Z,93.11
2022-12-28T20:26:18.438Z,93.95
2022-12-28T20:28:45.998Z,92.84
2022-12-28T20:31:14.833Z,92.96
2022-12-28T20:33:42.633Z,93.68
2022-12-28T20:36:14.589Z,95.23
2022-12-28T20:38:42.266Z,95.17
2022-12-28T20:41:32.150Z,94.45
2022-12-28T20:44:00.805Z,94.76
2022-12-28T20:46:28.869Z,96.59
2022-12-28T20:48:56.541Z,96.95
2022-12-28T20:51:23.702Z,97.09
2022-12-28T20:53:50.847Z,97.17
2022-12-28T20:56:18.405Z,96.24
2022-12-28T20:58:45.621Z,96.88
2022-12-28T21:01:15.279Z,95.82
2022-12-28T21:03:42.672Z,96.54
2022-12-28T21:06:09.790Z,97.15
2022-12-28T21:08:37.105Z,97.60
2022-12-28T21:11:04.746Z,97.90
2022-12-28T21:13:32.080Z,96.95
2022-12-28T21:16:02.606Z,96.73
2022-12-28T21:18:29.873Z,95.99
2022-12-28T21:20:58.933Z,96.86
2022-12-28T21:23:30.247Z,96.25
2022-12-28T21:26:05.742Z,95.52
2022-12-28T21:28:34.345Z,95.10
2022-12-28T21:31:03.704Z,94.27
2022-12-28T21:33:31.762Z,94.17
2022-12-28T21:36:03.116Z,94.08
2022-12-28T21:38:31.436Z,95.16
2022-12-28T21:41:13.685Z,94.82
2022-12-28T21:43:41.464Z,95.75
2022-12-28T21:46:12.331Z,95.78
2022-12-28T21:48:39.783Z,95.16
2022-12-28T21:51:31.760Z,94.72
2022-12-28T21:54:01.329Z,93.80
2022-12-28T21:56:29.493Z,92.73
2022-12-28T21:58:58.014Z,91.62
2022-12-28T22:01:44.527Z,91.98
2022-12-28T22:04:33.361Z,93.82
2022-12-28T22:07:01.291Z,93.96
2022-12-28T22:09:48.014Z,94.27
2022-12-28T22:12:34.070Z,94.64
2022-12-28T22:15:38.961Z,94.61
2022-12-28T22:21:05.166Z,94.33
2022-12-28T22:23:34.792Z,94.64
2022-12-28T22:26:03.166Z,93.29
2022-12-28T22:28:30.404Z,93.31
2022-12-28T22:30:57.468Z,93.08
2022-12-28T22:33:24.655Z,94.18
2022-12-28T22:35:51.745Z,94.54
2022-12-28T22:38:18.888Z,94.62
2022-12-28T22:40:45.964Z,95.25
2022-12-28T22:43:13.788Z,95.07
2022-12-28T22:45:40.973Z,95.07
2022-12-28T22:48:08.110Z,94.29
2022-12-28T22:50:39.737Z,93.69
2022-12-28T22:53:10.178Z,93.36
2022-12-28T22:55:37.244Z,94.30
2022-12-28T22:58:04.341Z,93.77
2022-12-28T23:00:31.464Z,94.31
2022-12-28T23:02:58.613Z,94.21
2022-12-28T23:05:25.727Z,95.46
2022-12-28T23:07:52.841Z,95.50
2022-12-28T23:10:20.161Z,95.03
2022-12-28T23:12:47.286Z,94.62
2022-12-28T23:15:18.857Z,95.69
2022-12-28T23:17:48.552Z,95.61
2022-12-28T23:20:34.191Z,95.01
2022-12-28T23:23:19.652Z,95.09
2022-12-28T23:26:05.338Z,94.67
2022-12-28T23:28:33.863Z,95.41
2022-12-28T23:31:01.223Z,95.40
2022-12-28T23:33:28.510Z,94.79
2022-12-28T23:35:55.680Z,94.25
2022-12-28T23:38:22.808Z,93.67
2022-12-28T23:41:09.813Z,94.30
2022-12-28T23:43:36.919Z,93.58
2022-12-28T23:46:05.399Z,93.33
2022-12-28T23:48:32.589Z,92.78
2022-12-28T23:51:08.485Z,93.71
2022-12-28T23:53:36.363Z,94.46
2022-12-28T23:56:03.594Z,93.59
2022-12-28T23:58:30.693Z,93.26
